Time;durP1;ratioP1;P1;durP2;ratioP2;P2;SDS_P1;SDS_P2;PMS_P1;PMS_P2;Temp;Humidity;BMP_temperature;BMP_pressure;BME280_temperature;BME280_humidity;BME280_pressure;Samples;Min_cycle;Max_cycle;Signal;HPM_P1;HPM_P2
2023/05/05 00:25:51;;;;;;;8.05;2.25;;;;;;;;;;6149572;23;20040;-81
2023/05/05 00:28:28;;;;;;;4.57;1.63;;;;;;;;;;6125305;23;20505;-81
2023/05/05 00:31:07;;;;;;;9.40;2.75;;;;;;;;;;6087901;23;20014;-81
2023/05/05 00:33:47;;;;;;;5.53;1.40;;;;;;;;;;6065389;23;20064;-81
2023/05/05 00:36:18;;;;;;;5.40;1.73;;;;;;;;;;6064732;23;20026;-81
2023/05/05 00:38:53;;;;;;;5.53;2.03;;;;;;;;;;6065270;23;20032;-80
2023/05/05 00:41:19;;;;;;;9.55;3.45;;;;;;;;;;6089467;23;20089;-81
2023/05/05 00:44:00;;;;;;;12.90;2.72;;;;;;;;;;6065556;23;20418;-81
2023/05/05 01:01:54;;;;;;;9.60;2.58;;;;;;;;;;6181138;23;20029;-82
2023/05/05 01:08:16;;;;;;;;;;;;;;;;;;;;;
2023/05/05 01:24:34;;;;;;;7.07;2.55;;;;;;;;;;6151261;23;20024;-81
2023/05/05 01:27:18;;;;;;;5.13;2.28;;;;;;;;;;6121965;23;20022;-81
2023/05/05 01:30:39;;;;;;;10.02;2.80;;;;;;;;;;6149787;23;20017;-82
2023/05/05 01:36:21;;;;;;;8.32;2.70;;;;;;;;;;6109752;23;20125;-81
2023/05/05 01:39:21;;;;;;;;;;;;;;;;;;;;;
2023/05/05 01:42:17;;;;;;;7.90;2.63;;;;;;;;;;6118086;23;20435;-81
2023/05/05 01:45:17;;;;;;;;;;;;;;;;;;;;;
2023/05/05 01:48:16;;;;;;;;;;;;;;;;;;;;;
2023/05/05 01:50:46;;;;;;;12.05;3.40;;;;;;;;;;6098143;23;20100;-82
2023/05/05 01:53:20;;;;;;;7.00;2.55;;;;;;;;;;6093494;23;20010;-81
2023/05/05 01:58:51;;;;;;;8.23;2.30;;;;;;;;;;6110776;23;20014;-81
2023/05/05 02:01:46;;;;;;;;;;;;;;;;;;;;;
2023/05/05 02:04:24;;;;;;;7.40;2.40;;;;;;;;;;6170968;23;20096;-81
2023/05/05 02:10:16;;;;;;;;;;;;;;;;;;;;;
2023/05/05 02:12:55;;;;;;;8.32;2.67;;;;;;;;;;6179697;23;20108;-82
2023/05/05 02:15:59;;;;;;;;;;;;;;;;;;;;;
2023/05/05 02:24:32;;;;;;;5.45;1.88;;;;;;;;;;6141163;23;20025;-81
2023/05/05 02:27:15;;;;;;;5.22;1.80;;;;;;;;;;6124771;23;20021;-81
2023/05/05 02:29:55;;;;;;;7.05;2.33;;;;;;;;;;6117884;23;20066;-81
2023/05/05 02:33:01;;;;;;;5.25;1.70;;;;;;;;;;6092981;23;20021;-82
2023/05/05 02:35:37;;;;;;;5.30;2.13;;;;;;;;;;5980509;23;20025;-81
2023/05/05 02:38:29;;;;;;;8.45;1.70;;;;;;;;;;6004347;23;20035;-82
2023/05/05 02:41:45;;;;;;;10.65;2.35;;;;;;;;;;6090722;23;20018;-82
2023/05/05 02:50:40;;;;;;;5.72;2.42;;;;;;;;;;6141695;23;20013;-82
2023/05/05 02:56:05;;;;;;;6.47;2.20;;;;;;;;;;6062182;23;20018;-82
2023/05/05 02:58:39;;;;;;;9.77;2.65;;;;;;;;;;6152532;23;20094;-82
2023/05/05 03:01:06;;;;;;;13.10;2.67;;;;;;;;;;6151621;23;20013;-82
2023/05/05 03:03:52;;;;;;;12.07;3.35;;;;;;;;;;6126510;23;20043;-82
2023/05/05 03:06:20;;;;;;;11.02;2.72;;;;;;;;;;6131846;23;20013;-82
2023/05/05 03:08:52;;;;;;;7.50;1.88;;;;;;;;;;6153104;23;20018;-82
2023/05/05 03:11:22;;;;;;;6.45;2.10;;;;;;;;;;6151920;23;20013;-82
2023/05/05 03:13:50;;;;;;;7.78;2.33;;;;;;;;;;6153175;23;20015;-82
2023/05/05 03:16:17;;;;;;;6.93;1.85;;;;;;;;;;6151786;23;20436;-82
2023/05/05 03:18:44;;;;;;;6.38;1.77;;;;;;;;;;6153028;23;20006;-81
2023/05/05 03:21:11;;;;;;;5.70;1.95;;;;;;;;;;6125847;23;20329;-81
2023/05/05 03:27:56;;;;;;;;;;;;;;;;;;;;;
2023/05/05 03:43:12;;;;;;;4.88;2.13;;;;;;;;;;6081157;23;20106;-81
2023/05/05 03:45:53;;;;;;;;;;;;;;;;;;;;;
2023/05/05 03:48:25;;;;;;;4.00;1.92;;;;;;;;;;6105918;23;20097;-81
2023/05/05 03:54:17;;;;;;;9.88;3.15;;;;;;;;;;6095837;23;20028;-81
2023/05/05 03:57:05;;;;;;;12.50;3.85;;;;;;;;;;6104448;23;20510;-81
2023/05/05 04:19:27;;;;;;;7.00;2.80;;;;;;;;;;6105045;23;20032;-81
2023/05/05 04:25:04;;;;;;;12.57;2.83;;;;;;;;;;6180659;23;20088;-81
2023/05/05 04:30:08;;;;;;;7.40;2.42;;;;;;;;;;6139130;23;20036;-81
2023/05/05 04:32:36;;;;;;;10.38;2.40;;;;;;;;;;6125589;23;20017;-81
2023/05/05 04:35:05;;;;;;;9.93;2.72;;;;;;;;;;6125172;23;20464;-81
2023/05/05 04:37:37;;;;;;;8.65;2.72;;;;;;;;;;6125116;23;20013;-80
2023/05/05 04:43:38;;;;;;;;;;;;;;;;;;;;;
2023/05/05 04:46:14;;;;;;;11.55;3.10;;;;;;;;;;6143521;23;20023;-81
2023/05/05 04:49:02;;;;;;;;;;;;;;;;;;;;;
2023/05/05 04:51:50;;;;;;;11.13;3.22;;;;;;;;;;6151679;23;20096;-81
2023/05/05 04:55:00;;;;;;;11.32;2.75;;;;;;;;;;6124714;23;20529;-80
2023/05/05 05:06:45;;;;;;;11.50;3.70;;;;;;;;;;6087789;23;20036;-82
2023/05/05 05:09:11;;;;;;;8.65;2.63;;;;;;;;;;6100714;23;20064;-86
2023/05/05 05:11:37;;;;;;;15.00;3.60;;;;;;;;;;6123211;23;20010;-82
2023/05/05 05:17:22;;;;;;;7.40;3.20;;;;;;;;;;6149175;23;20017;-81
2023/05/05 05:19:52;;;;;;;8.52;2.53;;;;;;;;;;6150757;23;20005;-82
2023/05/05 05:22:21;;;;;;;9.30;3.05;;;;;;;;;;6153551;23;20088;-82
2023/05/05 05:24:47;;;;;;;14.95;3.05;;;;;;;;;;6154285;23;20013;-83
2023/05/05 05:27:13;;;;;;;15.25;3.75;;;;;;;;;;6180149;23;20044;-83
2023/05/05 05:29:39;;;;;;;12.32;3.40;;;;;;;;;;6154930;23;20009;-86
2023/05/05 05:32:05;;;;;;;11.25;3.13;;;;;;;;;;6154444;23;20017;-85
2023/05/05 05:34:31;;;;;;;7.40;3.20;;;;;;;;;;6180593;23;20020;-84
2023/05/05 05:36:57;;;;;;;8.27;2.80;;;;;;;;;;6180235;23;20013;-84
2023/05/05 05:39:23;;;;;;;8.02;3.05;;;;;;;;;;6180800;23;20009;-82
2023/05/05 05:41:49;;;;;;;14.05;3.75;;;;;;;;;;6179986;23;20013;-83
2023/05/05 05:44:15;;;;;;;15.23;3.83;;;;;;;;;;6154252;23;20013;-83
2023/05/05 05:46:41;;;;;;;10.68;2.20;;;;;;;;;;6179555;23;20100;-83
2023/05/05 05:49:07;;;;;;;12.85;2.35;;;;;;;;;;6153858;23;20372;-83
2023/05/05 05:51:33;;;;;;;10.05;2.47;;;;;;;;;;6153811;23;20013;-83
2023/05/05 05:53:59;;;;;;;8.38;2.75;;;;;;;;;;6153843;23;20306;-83
2023/05/05 05:56:25;;;;;;;12.23;2.70;;;;;;;;;;6153520;23;20024;-83
2023/05/05 05:58:51;;;;;;;8.45;2.63;;;;;;;;;;6154099;23;20001;-83
2023/05/05 06:01:17;;;;;;;7.60;2.83;;;;;;;;;;6181063;23;20009;-83
2023/05/05 06:03:43;;;;;;;9.80;2.97;;;;;;;;;;6153653;23;20008;-83
2023/05/05 06:06:09;;;;;;;13.07;3.03;;;;;;;;;;6154025;23;20065;-83
2023/05/05 06:08:35;;;;;;;7.88;1.73;;;;;;;;;;6179898;23;20059;-83
2023/05/05 06:11:01;;;;;;;15.40;2.15;;;;;;;;;;6156123;23;20100;-83
2023/05/05 06:13:27;;;;;;;15.55;2.25;;;;;;;;;;6155583;23;20009;-83
2023/05/05 06:15:53;;;;;;;8.45;1.83;;;;;;;;;;6175327;23;20025;-83
2023/05/05 06:18:19;;;;;;;6.47;1.60;;;;;;;;;;6181079;23;20012;-83
2023/05/05 06:20:48;;;;;;;8.02;2.10;;;;;;;;;;6182533;23;20009;-83
2023/05/05 06:23:14;;;;;;;10.45;2.83;;;;;;;;;;6180357;23;20056;-83
2023/05/05 06:25:40;;;;;;;5.90;1.95;;;;;;;;;;6181051;23;20013;-83
2023/05/05 06:28:06;;;;;;;8.68;2.05;;;;;;;;;;6181978;23;20031;-83
2023/05/05 06:30:32;;;;;;;7.55;2.42;;;;;;;;;;6180998;23;20015;-83
2023/05/05 06:32:58;;;;;;;7.55;1.70;;;;;;;;;;6180626;23;20020;-83
2023/05/05 06:35:24;;;;;;;4.40;1.45;;;;;;;;;;6183010;23;20004;-84
2023/05/05 06:37:50;;;;;;;4.25;1.30;;;;;;;;;;6180749;23;20128;-83
2023/05/05 06:40:16;;;;;;;7.82;1.80;;;;;;;;;;6180344;23;20454;-83
2023/05/05 06:42:45;;;;;;;6.82;1.52;;;;;;;;;;6180553;23;20456;-82
2023/05/05 06:45:12;;;;;;;9.52;1.80;;;;;;;;;;6180385;23;20079;-83
2023/05/05 06:47:38;;;;;;;7.15;1.40;;;;;;;;;;6182031;23;20009;-83
2023/05/05 06:50:04;;;;;;;4.40;1.85;;;;;;;;;;6179939;23;20013;-82
2023/05/05 06:52:31;;;;;;;5.50;1.38;;;;;;;;;;6182182;23;20072;-82
2023/05/05 06:54:57;;;;;;;11.77;1.77;;;;;;;;;;6180405;23;20632;-83
2023/05/05 06:57:23;;;;;;;6.22;1.60;;;;;;;;;;6180128;23;20013;-83
2023/05/05 06:59:49;;;;;;;7.65;1.52;;;;;;;;;;6180617;23;20260;-83
2023/05/05 07:02:15;;;;;;;3.90;1.40;;;;;;;;;;6179951;23;20088;-83
2023/05/05 07:04:41;;;;;;;6.18;1.90;;;;;;;;;;6180638;23;20016;-83
2023/05/05 07:07:07;;;;;;;6.57;1.63;;;;;;;;;;6179498;23;20494;-84
2023/05/05 07:09:33;;;;;;;8.30;1.80;;;;;;;;;;6180382;23;20017;-84
2023/05/05 07:11:59;;;;;;;4.88;1.50;;;;;;;;;;6179734;23;20045;-83
2023/05/05 07:14:25;;;;;;;6.88;1.83;;;;;;;;;;6180251;23;20056;-83
2023/05/05 07:16:51;;;;;;;6.78;1.88;;;;;;;;;;6180198;23;20373;-83
2023/05/05 07:19:17;;;;;;;5.60;1.63;;;;;;;;;;6180193;23;20009;-84
2023/05/05 07:21:43;;;;;;;3.28;1.40;;;;;;;;;;6179796;23;20048;-84
2023/05/05 07:24:09;;;;;;;4.13;1.70;;;;;;;;;;6180413;23;20105;-84
2023/05/05 07:26:35;;;;;;;4.80;1.67;;;;;;;;;;6181501;23;20013;-84
2023/05/05 07:29:03;;;;;;;4.85;1.73;;;;;;;;;;6180417;23;20013;-84
2023/05/05 07:31:29;;;;;;;7.63;1.40;;;;;;;;;;6179244;23;20144;-84
2023/05/05 07:33:55;;;;;;;6.38;1.50;;;;;;;;;;6180175;23;20052;-84
2023/05/05 07:36:26;;;;;;;5.53;1.70;;;;;;;;;;6179432;23;20043;-84
2023/05/05 07:38:52;;;;;;;4.40;1.77;;;;;;;;;;6180449;23;20013;-84
2023/05/05 07:41:18;;;;;;;3.53;1.27;;;;;;;;;;6179597;23;20059;-84
2023/05/05 07:43:45;;;;;;;5.15;1.80;;;;;;;;;;6181995;23;20009;-84
2023/05/05 07:46:11;;;;;;;4.60;1.20;;;;;;;;;;6180110;23;20017;-84
2023/05/05 07:48:39;;;;;;;6.10;1.30;;;;;;;;;;6179994;23;20016;-84
2023/05/05 07:51:06;;;;;;;5.30;1.35;;;;;;;;;;6180101;23;20337;-84
2023/05/05 07:53:32;;;;;;;6.80;1.40;;;;;;;;;;6179903;23;20063;-84
2023/05/05 07:56:13;;;;;;;6.90;1.65;;;;;;;;;;6179448;22;20367;-84
2023/05/05 07:59:04;;;;;;;4.57;1.83;;;;;;;;;;6178877;23;20091;-85
2023/05/05 08:02:24;;;;;;;;;;;;;;;;;;;;;
2023/05/05 08:05:06;;;;;;;;;;;;;;;;;;;;;
2023/05/05 08:07:42;;;;;;;;;;;;;;;;;;;;;
2023/05/05 08:16:55;;;;;;;10.27;1.60;;;;;;;;;;6181410;23;20017;-84
2023/05/05 08:26:08;;;;;;;;;;;;;;;;;;;;;
2023/05/05 08:31:58;;;;;;;5.95;1.70;;;;;;;;;;6060537;23;20079;-85
2023/05/05 08:38:03;;;;;;;;;;;;;;;;;;;;;
2023/05/05 08:41:06;;;;;;;;;;;;;;;;;;;;;
2023/05/05 08:47:43;;;;;;;;;;;;;;;;;;;;;
2023/05/05 09:06:06;;;;;;;4.35;1.20;;;;;;;;;;6178767;23;20021;-85
2023/05/05 09:12:39;;;;;;;;;;;;;;;;;;;;;
2023/05/05 09:15:02;;;;;;;5.50;1.80;;;;;;;;;;6050205;23;20019;-85
2023/05/05 09:17:54;;;;;;;7.63;1.60;;;;;;;;;;6169110;23;20029;-85
2023/05/05 09:20:26;;;;;;;7.57;1.60;;;;;;;;;;6152287;23;20023;-83
2023/05/05 09:23:15;;;;;;;9.05;1.20;;;;;;;;;;6154013;23;20013;-83
2023/05/05 09:26:28;;;;;;;8.85;1.55;;;;;;;;;;6150482;23;20512;-82
2023/05/05 09:36:04;;;;;;;7.68;1.55;;;;;;;;;;6053794;23;20010;-82
2023/05/05 09:48:36;;;;;;;8.30;1.45;;;;;;;;;;5949337;24;20104;-82
2023/05/05 10:19:20;;;;;;;;;;;;;;;;;;;;;
2023/05/05 11:03:35;;;;;;;;;;;;;;;;;;;;;
2023/05/05 13:27:40;;;;;;;5.53;1.00;;;;;;;;;;6165302;23;20021;-83
2023/05/05 13:30:55;;;;;;;;;;;;;;;;;;;;;
2023/05/05 17:06:37;;;;;;;5.97;0.88;;;;;;;;;;6150579;23;20060;-83
2023/05/05 17:11:47;;;;;;;3.95;1.08;;;;;;;;;;6178399;22;20026;-82
2023/05/05 17:37:49;;;;;;;2.60;0.80;;;;;;;;;;6149507;23;20029;-82
2023/05/05 17:43:28;;;;;;;;;;;;;;;;;;;;;
2023/05/05 23:12:39;;;;;;;;;;;;;;;;;;;;;
